Time;durP1;ratioP1;P1;durP2;ratioP2;P2;SDS_P1;SDS_P2;PMS_P1;PMS_P2;Temp;Humidity;BMP_temperature;BMP_pressure;BME280_temperature;BME280_humidity;BME280_pressure;Samples;Min_cycle;Max_cycle;Signal;HPM_P1;HPM_P2
2022/10/12 00:02:12;;;;;;;5.85;1.40;;;11.10;99.90;;;;;;5031125;28;20115;-65
2022/10/12 00:04:37;;;;;;;7.22;1.20;;;11.00;99.90;;;;;;5031100;28;20044;-65
2022/10/12 00:07:03;;;;;;;7.05;2.00;;;11.10;99.90;;;;;;5031209;28;20037;-65
2022/10/12 00:09:28;;;;;;;2.85;1.20;;;11.00;99.90;;;;;;5031355;28;20112;-65
2022/10/12 00:11:54;;;;;;;3.47;1.17;;;11.00;99.90;;;;;;5031103;28;20040;-65
2022/10/12 00:14:20;;;;;;;1.58;0.80;;;10.90;99.90;;;;;;5030906;28;20025;-65
2022/10/12 00:16:45;;;;;;;8.65;1.40;;;10.90;99.90;;;;;;5030037;28;20037;-64
2022/10/12 00:19:12;;;;;;;7.25;1.75;;;10.70;99.90;;;;;;5031119;28;20033;-64
2022/10/12 00:21:39;;;;;;;5.78;2.15;;;10.60;99.90;;;;;;5029818;28;20539;-64
2022/10/12 00:24:05;;;;;;;8.38;1.67;;;10.50;99.90;;;;;;5031040;28;20390;-64
2022/10/12 00:26:32;;;;;;;6.05;1.85;;;10.20;99.90;;;;;;5029839;28;20095;-65
2022/10/12 00:29:01;;;;;;;1.70;0.68;;;10.00;99.90;;;;;;5031152;28;20033;-65
2022/10/12 00:31:29;;;;;;;2.42;1.20;;;10.10;99.90;;;;;;5029489;28;20037;-64
2022/10/12 00:33:55;;;;;;;6.13;1.67;;;10.10;99.90;;;;;;5012586;28;20429;-65
2022/10/12 00:36:23;;;;;;;2.55;1.00;;;10.10;99.90;;;;;;5029598;28;20033;-64
2022/10/12 00:38:51;;;;;;;8.73;1.90;;;10.20;99.90;;;;;;5030742;28;20033;-65
2022/10/12 00:41:21;;;;;;;6.47;1.75;;;10.30;99.90;;;;;;5045878;28;20385;-64
2022/10/12 00:43:48;;;;;;;3.33;1.17;;;10.30;99.90;;;;;;5030387;28;20037;-64
2022/10/12 00:46:43;;;;;;;12.82;1.33;;;10.30;99.90;;;;;;5029870;28;20032;-65
2022/10/12 00:49:17;;;;;;;2.15;1.08;;;10.20;99.90;;;;;;5029579;28;20053;-65
2022/10/12 00:51:47;;;;;;;5.55;1.50;;;10.10;99.90;;;;;;5030837;28;20061;-64
2022/10/12 00:54:20;;;;;;;12.88;2.13;;;10.10;99.90;;;;;;5029129;28;20041;-64
2022/10/12 00:56:47;;;;;;;5.70;1.67;;;10.10;99.90;;;;;;5029464;28;20025;-64
2022/10/12 00:59:21;;;;;;;2.00;1.42;;;10.00;99.90;;;;;;5018467;28;20112;-65
2022/10/12 01:01:47;;;;;;;11.43;2.05;;;10.00;99.90;;;;;;5009856;28;20471;-64
2022/10/12 01:04:13;;;;;;;4.35;1.20;;;10.00;99.90;;;;;;5008596;28;20096;-64
2022/10/12 01:06:38;;;;;;;4.45;1.30;;;10.00;99.90;;;;;;5010503;28;20029;-65
2022/10/12 01:09:04;;;;;;;7.68;1.67;;;10.00;99.90;;;;;;5021014;28;20080;-64
2022/10/12 01:11:30;;;;;;;4.15;1.75;;;10.10;99.90;;;;;;5034609;28;20030;-64
2022/10/12 01:13:57;;;;;;;5.63;1.25;;;10.00;99.90;;;;;;5028802;28;20108;-65
2022/10/12 01:16:51;;;;;;;1.83;1.13;;;10.00;99.90;;;;;;5015331;28;20062;-65
2022/10/12 01:19:16;;;;;;;3.17;1.58;;;10.00;99.90;;;;;;5009396;28;20036;-65
2022/10/12 01:21:53;;;;;;;3.92;1.73;;;10.00;99.90;;;;;;5010590;28;20121;-65
2022/10/12 01:25:06;;;;;;;12.60;2.08;;;10.00;99.90;;;;;;5017983;28;20207;-65
2022/10/12 01:27:50;;;;;;;5.82;1.83;;;10.10;99.90;;;;;;5029116;28;20041;-65
2022/10/12 01:30:28;;;;;;;6.65;2.17;;;10.10;99.90;;;;;;5029220;28;20025;-65
2022/10/12 01:33:10;;;;;;;4.00;1.20;;;10.10;99.90;;;;;;5028808;28;20022;-65
2022/10/12 01:36:25;;;;;;;6.78;2.00;;;10.10;99.90;;;;;;5030447;28;20045;-65
2022/10/12 01:39:04;;;;;;;5.25;1.70;;;10.00;99.90;;;;;;4968761;28;20077;-65
2022/10/12 01:41:37;;;;;;;5.05;1.50;;;10.10;99.90;;;;;;5013268;28;20046;-65
2022/10/12 01:44:04;;;;;;;7.05;2.75;;;10.10;99.90;;;;;;4989250;28;20739;-65
2022/10/12 01:46:29;;;;;;;4.13;2.10;;;10.10;99.90;;;;;;4991004;28;20365;-65
2022/10/12 01:48:59;;;;;;;1.13;0.88;;;10.10;99.90;;;;;;4994215;28;20039;-65
2022/10/12 01:51:56;;;;;;;1.95;1.05;;;10.00;99.90;;;;;;4977407;28;20034;-65
2022/10/12 01:54:44;;;;;;;4.20;1.45;;;10.00;99.90;;;;;;4994340;28;20045;-65
2022/10/12 01:57:42;;;;;;;4.75;2.05;;;10.00;99.90;;;;;;4993114;28;20041;-65
2022/10/12 02:00:12;;;;;;;7.30;1.83;;;10.00;99.90;;;;;;4994448;28;20034;-65
2022/10/12 02:02:54;;;;;;;13.35;1.77;;;10.00;99.90;;;;;;4993834;28;20030;-65
2022/10/12 02:06:10;;;;;;;2.67;1.23;;;10.00;99.90;;;;;;4993189;28;20027;-65
2022/10/12 02:09:02;;;;;;;24.33;1.88;;;10.00;99.90;;;;;;4994091;28;20045;-65
2022/10/12 02:11:30;;;;;;;4.80;1.23;;;9.90;99.90;;;;;;5001921;23;20081;-73
2022/10/12 02:14:09;;;;;;;3.33;1.60;;;9.90;99.90;;;;;;4984550;28;20026;-73
2022/10/12 02:16:46;;;;;;;3.60;0.98;;;9.90;99.90;;;;;;4994062;28;20030;-73
2022/10/12 02:19:20;;;;;;;5.03;2.03;;;9.90;99.90;;;;;;4976952;28;20110;-73
2022/10/12 02:21:47;;;;;;;8.23;1.42;;;9.90;99.90;;;;;;4968535;28;20109;-73
2022/10/12 02:24:16;;;;;;;2.22;0.75;;;9.90;99.90;;;;;;4956808;28;20554;-72
2022/10/12 02:26:46;;;;;;;7.72;2.08;;;9.90;99.90;;;;;;4957334;28;20050;-72
2022/10/12 02:29:40;;;;;;;7.18;1.83;;;9.90;99.90;;;;;;4957393;28;20031;-72
2022/10/12 02:32:50;;;;;;;2.28;1.08;;;9.80;99.90;;;;;;4971351;28;20443;-73
2022/10/12 02:35:40;;;;;;;6.13;1.50;;;9.70;99.90;;;;;;4974114;28;20045;-72
2022/10/12 02:38:18;;;;;;;1.85;1.08;;;9.70;99.90;;;;;;4957842;28;20031;-72
2022/10/12 02:40:56;;;;;;;4.15;1.50;;;9.70;99.90;;;;;;4957453;28;20073;-73
2022/10/12 02:43:43;;;;;;;5.47;1.80;;;9.60;99.90;;;;;;4957045;28;20031;-73
2022/10/12 02:46:10;;;;;;;1.90;0.90;;;9.60;99.90;;;;;;4973909;28;20031;-73
2022/10/12 02:48:38;;;;;;;2.60;0.90;;;9.50;99.90;;;;;;4956538;28;20065;-73
2022/10/12 02:51:07;;;;;;;20.40;1.90;;;9.50;99.90;;;;;;4956602;28;20387;-73
2022/10/12 02:53:33;;;;;;;10.30;1.02;;;9.40;99.90;;;;;;4956533;28;20386;-73
2022/10/12 02:56:04;;;;;;;2.83;1.20;;;9.40;99.90;;;;;;4973975;28;20030;-73
2022/10/12 02:58:30;;;;;;;;;;;9.50;99.90;;;;;;4972709;28;20085;-73
2022/10/12 03:00:56;;;;;;;19.10;1.92;;;9.50;99.90;;;;;;4956269;28;19914;-73
2022/10/12 03:03:21;;;;;;;3.90;1.33;;;9.50;99.90;;;;;;4973482;28;20101;-74
2022/10/12 03:05:47;;;;;;;17.25;1.92;;;9.50;99.90;;;;;;4973743;28;20041;-73
2022/10/12 03:08:13;;;;;;;15.38;2.15;;;9.50;99.90;;;;;;4956380;28;20031;-73
2022/10/12 03:10:38;;;;;;;3.20;1.35;;;9.50;99.90;;;;;;4973369;28;20035;-74
2022/10/12 03:13:04;;;;;;;3.35;1.63;;;9.40;99.90;;;;;;4973004;28;20038;-73
2022/10/12 03:15:30;;;;;;;1.27;1.10;;;9.50;99.90;;;;;;4973389;28;20031;-75
2022/10/12 03:17:56;;;;;;;2.92;1.27;;;9.50;99.90;;;;;;4956318;28;20495;-74
2022/10/12 03:20:22;;;;;;;3.72;1.48;;;9.50;99.90;;;;;;4973175;28;20030;-73
2022/10/12 03:22:48;;;;;;;3.28;1.15;;;9.50;99.90;;;;;;4972827;28;20073;-73
2022/10/12 03:25:15;;;;;;;4.72;1.70;;;9.50;99.90;;;;;;4973232;28;20023;-73
2022/10/12 03:27:41;;;;;;;4.78;1.10;;;9.50;99.90;;;;;;4956042;28;20097;-73
2022/10/12 03:30:08;;;;;;;5.88;1.73;;;9.50;99.90;;;;;;4973276;28;20030;-73
2022/10/12 03:32:33;;;;;;;3.58;1.65;;;9.50;99.90;;;;;;4972795;28;20027;-73
2022/10/12 03:34:59;;;;;;;2.63;1.00;;;9.50;99.90;;;;;;4972807;28;20041;-74
2022/10/12 03:37:24;;;;;;;7.40;2.13;;;9.40;99.90;;;;;;4955700;28;20042;-74
2022/10/12 03:39:50;;;;;;;1.50;0.80;;;9.40;99.90;;;;;;4972894;28;20046;-74
2022/10/12 03:42:16;;;;;;;2.13;1.00;;;9.40;99.90;;;;;;4972566;28;20038;-73
2022/10/12 03:44:41;;;;;;;2.65;1.25;;;9.30;99.90;;;;;;4972611;28;20031;-74
2022/10/12 03:47:07;;;;;;;2.50;1.30;;;9.30;99.90;;;;;;4965953;28;20066;-74
2022/10/12 03:49:33;;;;;;;5.20;2.30;;;9.10;99.90;;;;;;4952937;29;20031;-74
2022/10/12 03:51:58;;;;;;;5.47;1.98;;;9.20;99.90;;;;;;4919633;28;20515;-74
2022/10/12 03:54:24;;;;;;;3.17;1.20;;;9.10;99.90;;;;;;4972589;28;20562;-74
2022/10/12 03:56:50;;;;;;;1.52;1.00;;;9.10;99.90;;;;;;4972746;28;20034;-74
2022/10/12 03:59:15;;;;;;;8.55;1.58;;;9.10;99.90;;;;;;4972361;28;20042;-74
2022/10/12 04:01:41;;;;;;;4.78;1.35;;;9.10;99.90;;;;;;4978626;28;20133;-74
2022/10/12 04:04:08;;;;;;;10.32;1.92;;;9.10;99.90;;;;;;4971434;28;20026;-74
2022/10/12 04:06:34;;;;;;;2.40;1.25;;;9.00;99.90;;;;;;4984417;28;20069;-74
2022/10/12 04:08:59;;;;;;;5.43;0.85;;;9.10;99.90;;;;;;4990436;28;20043;-74
2022/10/12 04:11:25;;;;;;;3.25;1.10;;;9.00;99.90;;;;;;4991307;28;20093;-74
2022/10/12 04:13:51;;;;;;;1.65;0.95;;;9.00;99.90;;;;;;4991378;28;20125;-74
2022/10/12 04:16:16;;;;;;;5.88;1.17;;;9.10;99.90;;;;;;4991739;28;20029;-74
2022/10/12 04:18:42;;;;;;;6.10;1.10;;;9.10;99.90;;;;;;4991871;28;20038;-75
2022/10/12 04:21:12;;;;;;;3.28;1.52;;;9.10;99.90;;;;;;4974199;28;20043;-74
2022/10/12 04:23:39;;;;;;;3.75;1.25;;;9.10;99.90;;;;;;4974138;28;20030;-73
2022/10/12 04:26:06;;;;;;;2.75;1.00;;;9.10;99.90;;;;;;4967058;28;20034;-74
2022/10/12 04:28:31;;;;;;;2.17;1.08;;;9.20;99.90;;;;;;4962229;28;20038;-73
2022/10/12 04:30:57;;;;;;;5.47;1.95;;;9.20;99.90;;;;;;4988523;28;20038;-74
2022/10/12 04:33:23;;;;;;;1.75;1.25;;;9.20;99.90;;;;;;4970760;28;20022;-74
2022/10/12 04:35:49;;;;;;;2.75;1.50;;;9.20;99.90;;;;;;4980113;28;20097;-74
2022/10/12 04:38:14;;;;;;;13.85;1.27;;;9.20;99.90;;;;;;4981888;28;20030;-74
2022/10/12 04:40:40;;;;;;;2.28;1.05;;;9.10;99.90;;;;;;4963866;28;20034;-74
2022/10/12 04:43:06;;;;;;;9.40;1.48;;;9.10;99.90;;;;;;4978484;28;20108;-73
2022/10/12 04:45:31;;;;;;;5.90;1.70;;;9.10;99.90;;;;;;4990578;28;20046;-74
2022/10/12 04:47:57;;;;;;;3.20;1.17;;;9.10;99.90;;;;;;4990878;28;20026;-74
2022/10/12 04:50:23;;;;;;;3.90;1.15;;;9.10;99.90;;;;;;4991148;28;20029;-73
2022/10/12 04:52:48;;;;;;;3.88;1.50;;;9.00;99.90;;;;;;4973275;28;20157;-73
2022/10/12 04:55:14;;;;;;;1.80;1.42;;;9.00;99.90;;;;;;4973537;28;20033;-73
2022/10/12 04:57:40;;;;;;;4.20;2.10;;;8.90;99.90;;;;;;4991223;28;20033;-73
2022/10/12 05:00:07;;;;;;;2.65;1.15;;;8.90;99.90;;;;;;4990931;28;20395;-73
2022/10/12 05:02:33;;;;;;;5.60;2.10;;;8.90;99.90;;;;;;4990639;28;20081;-74
2022/10/12 05:04:58;;;;;;;3.58;1.73;;;8.90;99.90;;;;;;4973228;28;20031;-74
2022/10/12 05:07:24;;;;;;;4.97;0.77;;;8.70;99.90;;;;;;4991139;28;20495;-74
2022/10/12 05:09:50;;;;;;;8.57;3.30;;;8.70;99.90;;;;;;4990675;28;20383;-73
2022/10/12 05:12:16;;;;;;;2.85;1.70;;;8.80;99.90;;;;;;4991139;28;20052;-79
2022/10/12 05:14:43;;;;;;;8.18;1.92;;;8.80;99.90;;;;;;4973731;28;20038;-74
2022/10/12 05:17:09;;;;;;;3.28;1.70;;;8.90;99.90;;;;;;4991007;28;20418;-75
2022/10/12 05:19:35;;;;;;;3.63;1.63;;;8.90;99.90;;;;;;4973163;28;20026;-73
2022/10/12 05:22:01;;;;;;;3.40;1.65;;;8.90;99.90;;;;;;4994664;28;20039;-75
2022/10/12 05:24:27;;;;;;;11.30;3.83;;;8.80;99.90;;;;;;4983839;28;20026;-75
2022/10/12 05:26:53;;;;;;;3.85;1.35;;;8.80;99.90;;;;;;4985357;28;20482;-76
2022/10/12 05:29:19;;;;;;;7.03;2.22;;;8.90;99.90;;;;;;4974428;28;20031;-75
2022/10/12 05:31:44;;;;;;;4.20;1.73;;;8.90;99.90;;;;;;4976268;28;20080;-74
2022/10/12 05:34:10;;;;;;;6.60;1.67;;;8.90;99.90;;;;;;4976960;28;20574;-74
2022/10/12 05:36:36;;;;;;;2.85;2.30;;;8.70;99.90;;;;;;4994378;28;20091;-74
2022/10/12 05:39:02;;;;;;;6.25;2.25;;;8.70;99.90;;;;;;4977056;28;20790;-74
2022/10/12 05:41:28;;;;;;;12.02;6.10;;;8.80;99.90;;;;;;4993839;28;20041;-73
2022/10/12 05:43:53;;;;;;;4.68;2.65;;;8.60;99.90;;;;;;4994168;28;20034;-74
2022/10/12 05:46:19;;;;;;;6.63;1.38;;;8.60;99.90;;;;;;4994337;28;20026;-74
2022/10/12 05:48:45;;;;;;;10.15;2.17;;;8.60;99.90;;;;;;4994395;28;20030;-74
2022/10/12 05:51:10;;;;;;;2.45;1.67;;;8.60;99.90;;;;;;4994098;28;20505;-74
2022/10/12 05:53:36;;;;;;;4.15;1.90;;;8.60;99.90;;;;;;4993924;28;20023;-74
2022/10/12 05:56:02;;;;;;;11.38;3.67;;;8.60;99.90;;;;;;4994390;28;20034;-75
2022/10/12 05:58:29;;;;;;;6.30;1.90;;;8.60;99.90;;;;;;4994029;28;20037;-74
2022/10/12 06:01:04;;;;;;;11.65;1.35;;;8.60;99.90;;;;;;4993647;28;20026;-74
2022/10/12 06:03:29;;;;;;;4.30;2.28;;;8.60;99.90;;;;;;4972741;28;20234;-73
2022/10/12 06:05:55;;;;;;;2.80;2.13;;;8.60;99.90;;;;;;4974568;28;20034;-72
2022/10/12 06:08:21;;;;;;;2.53;1.60;;;8.60;99.90;;;;;;4974509;28;20042;-72
2022/10/12 06:10:50;;;;;;;1.90;1.17;;;8.50;99.90;;;;;;4956134;28;20515;-75
2022/10/12 06:13:16;;;;;;;2.97;1.38;;;8.50;99.90;;;;;;4979131;28;20034;-74
2022/10/12 06:15:46;;;;;;;4.97;2.10;;;8.60;99.90;;;;;;4957115;28;20552;-75
2022/10/12 06:18:13;;;;;;;7.10;2.70;;;8.50;99.90;;;;;;4957673;28;20023;-73
2022/10/12 06:20:39;;;;;;;4.30;1.98;;;8.50;99.90;;;;;;4957323;28;20499;-72
2022/10/12 06:23:05;;;;;;;2.90;1.48;;;8.60;99.90;;;;;;4959270;28;20069;-74
2022/10/12 06:25:31;;;;;;;6.28;1.73;;;8.60;99.90;;;;;;4956932;28;20129;-73
2022/10/12 06:27:57;;;;;;;6.10;2.08;;;8.60;99.90;;;;;;4974179;28;20034;-72
2022/10/12 06:30:23;;;;;;;4.55;2.55;;;8.70;99.90;;;;;;4974173;28;20023;-72
2022/10/12 06:32:48;;;;;;;12.95;2.70;;;8.70;99.90;;;;;;4987782;28;20042;-74
2022/10/12 06:35:14;;;;;;;8.02;2.45;;;8.70;99.90;;;;;;4993848;28;20057;-74
2022/10/12 06:37:40;;;;;;;2.90;1.35;;;8.70;99.90;;;;;;4976471;28;20129;-74
2022/10/12 06:40:06;;;;;;;6.43;2.05;;;8.70;99.90;;;;;;4993673;28;20091;-74
2022/10/12 06:42:32;;;;;;;3.00;1.48;;;8.70;99.90;;;;;;4993287;28;20038;-74
2022/10/12 06:44:58;;;;;;;3.42;1.48;;;8.70;99.90;;;;;;4994040;28;20486;-74
2022/10/12 06:47:23;;;;;;;6.97;1.58;;;8.70;99.90;;;;;;4993384;28;20038;-74
2022/10/12 06:49:49;;;;;;;19.75;2.38;;;8.70;99.90;;;;;;4993569;28;20026;-74
2022/10/12 06:52:14;;;;;;;5.07;1.88;;;8.80;99.90;;;;;;4992915;28;20029;-74
2022/10/12 06:54:40;;;;;;;11.82;2.22;;;9.10;99.90;;;;;;4975998;28;20046;-75
2022/10/12 06:57:06;;;;;;;6.45;2.00;;;9.20;99.90;;;;;;4993330;28;20053;-75
2022/10/12 06:59:32;;;;;;;3.95;1.55;;;9.30;99.90;;;;;;4993350;28;20034;-74
2022/10/12 07:01:58;;;;;;;4.55;2.25;;;9.50;99.90;;;;;;4993349;28;20482;-75
2022/10/12 07:04:24;;;;;;;5.72;1.80;;;9.50;99.90;;;;;;4975284;28;20033;-74
2022/10/12 07:06:49;;;;;;;4.88;1.40;;;9.60;99.90;;;;;;4975807;28;20030;-75
2022/10/12 07:09:16;;;;;;;7.38;1.17;;;9.70;99.90;;;;;;4993209;28;20069;-75
2022/10/12 07:11:41;;;;;;;2.25;1.05;;;10.00;99.90;;;;;;4993195;28;20043;-76
2022/10/12 07:14:07;;;;;;;8.30;1.58;;;10.10;99.90;;;;;;4975419;28;20114;-74
2022/10/12 07:16:33;;;;;;;3.13;1.90;;;10.00;99.90;;;;;;4992868;28;20042;-76
2022/10/12 07:18:59;;;;;;;3.63;1.35;;;10.00;99.90;;;;;;4992545;28;20487;-75
2022/10/12 07:21:25;;;;;;;1.85;1.05;;;9.70;99.90;;;;;;4959324;28;20515;-74
2022/10/12 07:23:52;;;;;;;4.60;1.58;;;9.80;99.90;;;;;;4992830;28;20034;-74
2022/10/12 07:26:17;;;;;;;7.38;1.70;;;9.60;99.90;;;;;;4992746;28;20030;-73
2022/10/12 07:28:43;;;;;;;1.33;0.93;;;9.40;99.90;;;;;;4992659;28;20474;-73
2022/10/12 07:31:09;;;;;;;13.40;1.80;;;9.20;99.90;;;;;;4992524;28;20110;-74
2022/10/12 07:33:39;;;;;;;1.58;1.05;;;9.00;99.90;;;;;;4974873;28;20530;-74
2022/10/12 07:36:06;;;;;;;10.48;4.20;;;8.90;99.90;;;;;;4992534;28;20030;-74
2022/10/12 07:38:32;;;;;;;18.25;8.40;;;8.90;99.90;;;;;;4975177;28;20040;-74
2022/10/12 07:41:00;;;;;;;16.95;7.60;;;9.20;99.90;;;;;;4990886;28;20101;-73
2022/10/12 07:43:27;;;;;;;10.63;2.95;;;9.30;99.90;;;;;;4973962;28;20066;-74
2022/10/12 07:45:52;;;;;;;2.63;1.50;;;9.30;99.90;;;;;;4992040;28;20073;-75
2022/10/12 07:48:19;;;;;;;5.93;3.55;;;9.40;99.90;;;;;;4992415;28;20034;-75
2022/10/12 07:50:45;;;;;;;4.07;2.03;;;9.40;99.90;;;;;;4992003;28;20363;-74
2022/10/12 07:53:11;;;;;;;3.03;1.92;;;9.50;99.90;;;;;;4974488;28;20096;-75
2022/10/12 07:55:36;;;;;;;4.70;1.88;;;9.70;99.90;;;;;;4974820;28;20391;-74
2022/10/12 07:58:03;;;;;;;2.78;1.55;;;9.80;99.90;;;;;;4974722;28;20644;-74
2022/10/12 08:00:30;;;;;;;2.92;1.65;;;9.90;99.90;;;;;;4992042;28;20394;-75
2022/10/12 08:02:57;;;;;;;9.13;1.65;;;9.90;99.90;;;;;;4991552;28;20065;-74
2022/10/12 08:05:23;;;;;;;9.40;2.30;;;10.00;99.90;;;;;;4991503;28;20088;-74
2022/10/12 08:07:51;;;;;;;6.00;2.40;;;10.00;99.90;;;;;;4990607;28;20026;-75
2022/10/12 08:10:18;;;;;;;10.70;2.22;;;10.00;99.90;;;;;;4974554;28;20022;-75
2022/10/12 08:12:44;;;;;;;6.68;2.10;;;10.10;99.90;;;;;;5013135;22;20042;-77
2022/10/12 08:15:12;;;;;;;6.07;2.33;;;10.00;99.90;;;;;;4985455;28;20117;-79
2022/10/12 08:17:38;;;;;;;2.80;1.58;;;9.90;99.90;;;;;;4994160;28;20022;-79
2022/10/12 08:20:05;;;;;;;3.78;1.48;;;10.00;99.90;;;;;;5011250;28;20029;-79
2022/10/12 08:22:31;;;;;;;2.88;1.52;;;10.20;99.90;;;;;;4993925;28;20037;-79
2022/10/12 08:24:57;;;;;;;7.25;1.98;;;10.40;99.90;;;;;;4993734;28;20426;-80
2022/10/12 08:27:22;;;;;;;3.15;1.17;;;10.50;99.90;;;;;;5011372;28;20038;-79
2022/10/12 08:29:48;;;;;;;7.93;2.60;;;10.70;99.90;;;;;;5011167;28;20033;-79
2022/10/12 08:32:14;;;;;;;11.10;1.75;;;11.00;99.90;;;;;;5010883;28;20037;-79
2022/10/12 08:34:39;;;;;;;10.88;2.92;;;11.00;99.90;;;;;;4993378;28;20405;-79
2022/10/12 08:37:05;;;;;;;5.55;2.45;;;11.00;99.90;;;;;;5011041;28;20048;-79
2022/10/12 08:39:31;;;;;;;11.70;1.92;;;11.10;99.90;;;;;;4993625;28;20037;-79
2022/10/12 08:42:22;;;;;;;4.90;2.28;;;11.10;99.90;;;;;;5010789;28;20029;-79
2022/10/12 08:45:15;;;;;;;3.17;1.85;;;11.20;99.90;;;;;;5011301;28;20030;-79
2022/10/12 08:47:57;;;;;;;4.90;2.17;;;11.30;99.90;;;;;;5010964;28;20137;-78
2022/10/12 08:50:32;;;;;;;3.72;2.03;;;11.30;99.90;;;;;;4993103;28;20037;-79
2022/10/12 08:53:26;;;;;;;6.93;2.05;;;11.50;99.90;;;;;;4992301;28;20026;-79
2022/10/12 08:55:53;;;;;;;4.90;1.95;;;11.70;99.90;;;;;;4995307;28;20026;-79
2022/10/12 08:58:34;;;;;;;3.58;2.38;;;11.40;99.90;;;;;;5010705;28;20406;-79
2022/10/12 09:01:32;;;;;;;;;;;11.40;99.90;;;;;;5011354;28;20061;-78
2022/10/12 09:04:25;;;;;;;10.48;3.40;;;11.90;99.90;;;;;;5010630;28;19910;-79
2022/10/12 09:06:51;;;;;;;2.45;1.30;;;12.20;99.90;;;;;;5010990;28;20555;-79
2022/10/12 09:09:51;;;;;;;7.72;2.45;;;12.20;99.90;;;;;;5010480;28;20038;-79
2022/10/12 09:12:28;;;;;;;4.15;2.15;;;12.30;99.90;;;;;;5010492;28;20030;-78
2022/10/12 09:15:01;;;;;;;56.08;21.17;;;12.80;99.90;;;;;;4994417;28;20041;-79
2022/10/12 09:17:40;;;;;;;14.95;5.07;;;12.90;99.90;;;;;;4993751;28;20075;-79
2022/10/12 09:20:26;;;;;;;10.05;2.45;;;13.10;99.90;;;;;;4994212;28;20045;-79
2022/10/12 09:23:11;;;;;;;8.57;2.35;;;13.50;99.90;;;;;;5010136;28;20084;-79
2022/10/12 09:25:37;;;;;;;6.05;2.65;;;13.70;99.90;;;;;;5010696;28;20061;-79
2022/10/12 09:28:33;;;;;;;12.95;2.55;;;13.50;99.90;;;;;;4993151;28;20034;-79
2022/10/12 09:31:09;;;;;;;8.82;2.47;;;13.30;99.90;;;;;;4994025;28;20092;-79
2022/10/12 09:33:47;;;;;;;3.53;1.67;;;13.40;99.90;;;;;;5010345;28;20037;-80
2022/10/12 09:36:21;;;;;;;8.15;2.00;;;13.60;99.90;;;;;;4993527;28;20037;-79
2022/10/12 09:38:48;;;;;;;7.20;1.63;;;13.80;99.90;;;;;;4993295;28;20548;-80
2022/10/12 09:41:30;;;;;;;6.00;2.78;;;13.60;99.90;;;;;;4992893;28;20030;-79
2022/10/12 09:43:59;;;;;;;6.32;3.42;;;13.60;99.90;;;;;;4993204;28;20037;-80
2022/10/12 09:46:41;;;;;;;8.05;2.95;;;12.90;99.90;;;;;;5010367;28;20026;-80
2022/10/12 09:49:07;;;;;;;11.30;3.90;;;13.30;99.90;;;;;;4993161;28;20030;-80
2022/10/12 09:51:33;;;;;;;5.28;2.35;;;13.50;99.90;;;;;;4992995;28;20026;-80
2022/10/12 09:54:04;;;;;;;4.65;2.75;;;13.40;99.90;;;;;;4992780;28;20394;-80
2022/10/12 09:56:40;;;;;;;7.95;3.45;;;13.50;99.90;;;;;;4993654;28;20045;-80
2022/10/12 09:59:31;;;;;;;6.65;2.53;;;13.50;99.90;;;;;;4993543;28;20041;-80
2022/10/12 10:02:09;;;;;;;7.13;2.85;;;13.80;99.90;;;;;;4994703;28;20036;-80
2022/10/12 10:04:36;;;;;;;6.72;2.55;;;14.10;99.90;;;;;;5010385;28;20442;-80
2022/10/12 10:07:32;;;;;;;14.77;2.95;;;13.70;99.90;;;;;;4989177;28;20032;-80
2022/10/12 10:10:23;;;;;;;8.07;2.17;;;13.70;99.90;;;;;;4976718;28;20172;-81
2022/10/12 10:12:50;;;;;;;6.43;2.83;;;13.60;99.90;;;;;;5005876;28;20064;-80
2022/10/12 10:15:30;;;;;;;8.02;2.97;;;13.70;99.90;;;;;;5013785;28;20117;-81
2022/10/12 10:18:04;;;;;;;6.13;2.42;;;13.40;99.90;;;;;;5012622;28;20095;-80
2022/10/12 10:20:48;;;;;;;6.68;2.97;;;13.60;99.90;;;;;;5013950;28;20066;-80
2022/10/12 10:23:55;;;;;;;6.18;2.10;;;13.90;99.90;;;;;;4995755;28;20040;-80
2022/10/12 10:26:22;;;;;;;8.85;2.78;;;13.70;99.90;;;;;;4999544;28;20132;-80
2022/10/12 10:28:56;;;;;;;8.80;2.80;;;13.90;99.90;;;;;;4996007;28;20478;-80
2022/10/12 10:31:26;;;;;;;8.20;3.58;;;14.10;99.90;;;;;;5012266;28;20409;-80
2022/10/12 10:34:10;;;;;;;87.00;34.63;;;13.60;99.90;;;;;;5012973;28;20030;-81
2022/10/12 10:36:55;;;;;;;8.23;4.05;;;14.10;99.90;;;;;;5013449;28;20037;-80
2022/10/12 10:39:27;;;;;;;5.88;2.47;;;14.00;99.90;;;;;;4995891;28;20214;-80
2022/10/12 10:41:54;;;;;;;13.50;3.40;;;14.40;99.90;;;;;;4996082;28;20037;-81
2022/10/12 10:44:30;;;;;;;7.28;2.45;;;14.50;99.90;;;;;;5012738;28;20030;-80
2022/10/12 10:47:02;;;;;;;14.10;5.50;;;14.50;99.90;;;;;;5013306;28;20083;-80
2022/10/12 10:49:42;;;;;;;27.95;7.47;;;14.70;99.90;;;;;;5012562;28;20370;-83
2022/10/12 10:52:34;;;;;;;7.07;3.22;;;14.70;99.90;;;;;;4996215;28;20080;-81
2022/10/12 10:55:09;;;;;;;14.00;3.78;;;15.30;99.90;;;;;;4998079;28;20045;-76
2022/10/12 10:57:42;;;;;;;9.63;4.38;;;15.10;99.90;;;;;;4995948;28;20087;-79
2022/10/12 11:00:16;;;;;;;10.88;3.75;;;14.60;99.90;;;;;;4978954;28;20478;-79
2022/10/12 11:03:06;;;;;;;8.10;3.92;;;14.10;99.90;;;;;;5005551;28;20029;-79
2022/10/12 11:05:50;;;;;;;11.20;3.05;;;14.40;99.90;;;;;;5011739;28;20041;-77
2022/10/12 11:08:25;;;;;;;9.30;3.80;;;14.50;99.90;;;;;;5011710;28;20044;-77
2022/10/12 11:11:18;;;;;;;7.05;2.55;;;14.50;99.90;;;;;;5011609;28;20026;-83
2022/10/12 11:14:02;;;;;;;9.15;4.43;;;14.80;99.90;;;;;;5011209;28;20029;-84
2022/10/12 11:16:52;;;;;;;11.07;4.20;;;14.30;99.90;;;;;;5011577;28;20056;-80
2022/10/12 11:19:48;;;;;;;6.10;3.15;;;14.40;99.90;;;;;;4998511;28;20505;-76
2022/10/12 11:22:38;;;;;;;11.68;4.03;;;15.00;99.90;;;;;;5010889;28;20030;-73
2022/10/12 11:25:28;;;;;;;7.90;3.30;;;15.70;99.90;;;;;;4992960;28;20085;-77
2022/10/12 11:27:54;;;;;;;13.68;4.30;;;15.70;99.90;;;;;;4992265;28;20169;-73
2022/10/12 11:30:27;;;;;;;7.10;3.85;;;15.90;99.90;;;;;;4991427;28;20037;-74
2022/10/12 11:33:21;;;;;;;7.72;3.60;;;15.70;99.90;;;;;;5006463;28;20030;-77
2022/10/12 11:35:47;;;;;;;5.75;3.28;;;15.60;99.90;;;;;;5009925;28;20041;-79
2022/10/12 11:38:19;;;;;;;10.18;4.53;;;16.00;99.90;;;;;;5010902;28;20460;-74
2022/10/12 11:40:54;;;;;;;7.32;3.53;;;15.70;99.90;;;;;;5010841;28;20469;-78
2022/10/12 11:43:29;;;;;;;10.55;3.80;;;16.20;99.90;;;;;;5010582;28;20113;-79
2022/10/12 11:46:02;;;;;;;15.52;3.40;;;16.20;99.90;;;;;;5010550;28;20036;-77
2022/10/12 11:48:42;;;;;;;8.70;3.70;;;17.00;99.90;;;;;;5010782;28;20096;-77
2022/10/12 11:51:09;;;;;;;7.78;2.80;;;17.10;99.90;;;;;;5010673;28;20030;-78
2022/10/12 11:53:52;;;;;;;15.40;3.92;;;17.30;99.90;;;;;;5010417;28;20076;-77
2022/10/12 11:56:33;;;;;;;6.57;3.25;;;16.50;99.90;;;;;;5011564;28;20033;-71
2022/10/12 11:59:18;;;;;;;8.80;3.40;;;16.50;99.90;;;;;;5010726;28;20057;-78
2022/10/12 12:02:13;;;;;;;6.80;3.08;;;17.40;99.90;;;;;;5011367;28;20064;-77
2022/10/12 12:04:46;;;;;;;21.73;9.95;;;18.20;99.90;;;;;;5010532;28;20029;-77
2022/10/12 12:07:52;;;;;;;17.98;5.55;;;20.30;99.90;;;;;;5010325;28;20036;-77
2022/10/12 12:10:29;;;;;;;14.20;3.42;;;20.70;99.90;;;;;;4993805;28;20042;-77
2022/10/12 12:13:21;;;;;;;11.60;2.65;;;21.60;97.80;;;;;;5010912;28;20141;-78
2022/10/12 12:15:48;;;;;;;9.68;3.00;;;21.20;98.00;;;;;;5011481;28;20025;-77
2022/10/12 12:18:24;;;;;;;9.07;3.28;;;21.80;97.70;;;;;;4991818;28;20117;-78
2022/10/12 12:21:08;;;;;;;6.80;2.97;;;20.60;98.20;;;;;;4990789;28;20031;-77
2022/10/12 12:23:49;;;;;;;12.95;5.50;;;22.30;96.30;;;;;;4990119;28;20026;-78
2022/10/12 12:26:17;;;;;;;10.57;3.65;;;22.40;96.30;;;;;;4990696;28;20049;-78
2022/10/12 12:29:06;;;;;;;6.50;2.65;;;22.10;96.10;;;;;;4991713;28;20042;-78
2022/10/12 12:31:32;;;;;;;9.70;3.17;;;23.00;96.50;;;;;;4994388;28;20041;-78
2022/10/12 12:34:12;;;;;;;8.90;3.47;;;23.00;94.90;;;;;;4993087;28;20054;-78
2022/10/12 12:36:43;;;;;;;11.60;3.88;;;21.70;97.00;;;;;;5011315;28;20111;-78
2022/10/12 12:39:36;;;;;;;7.63;3.35;;;21.20;97.00;;;;;;5009705;28;20057;-78
2022/10/12 12:42:06;;;;;;;9.27;3.58;;;22.80;96.60;;;;;;4976408;28;20069;-78
2022/10/12 12:44:43;;;;;;;5.32;3.10;;;21.30;97.00;;;;;;5009374;28;20516;-77
2022/10/12 12:47:09;;;;;;;15.18;3.78;;;19.70;99.90;;;;;;5009642;28;20033;-78
2022/10/12 12:50:01;;;;;;;13.73;4.35;;;19.60;99.90;;;;;;5010995;28;20494;-78
2022/10/12 12:52:33;;;;;;;11.02;3.97;;;20.40;99.80;;;;;;5009463;28;20144;-78
2022/10/12 12:55:57;;;;;;;9.63;3.58;;;21.00;98.90;;;;;;5010849;28;20033;-78
2022/10/12 12:58:54;;;;;;;6.72;2.85;;;20.50;99.90;;;;;;5010786;28;20026;-78
2022/10/12 13:01:44;;;;;;;7.32;3.28;;;20.30;99.90;;;;;;5008707;28;20227;-78
2022/10/12 13:04:45;;;;;;;8.05;2.88;;;20.60;99.90;;;;;;5010489;28;20034;-78
2022/10/12 13:08:02;;;;;;;8.25;3.22;;;20.70;99.90;;;;;;5010682;28;20490;-78
2022/10/12 13:11:19;;;;;;;9.75;3.95;;;21.80;99.20;;;;;;5009574;28;20041;-78
2022/10/12 13:14:13;;;;;;;9.15;3.55;;;22.40;98.20;;;;;;4987037;28;20497;-81
2022/10/12 13:17:21;;;;;;;9.88;4.50;;;21.10;99.80;;;;;;5009929;28;20057;-78
2022/10/12 13:19:47;;;;;;;8.75;3.58;;;21.80;99.90;;;;;;5010727;28;20034;-79
2022/10/12 13:22:27;;;;;;;9.38;2.55;;;21.70;98.10;;;;;;5009159;28;20073;-50